sensor_id;sensor_type;location;lat;lon;timestamp;P1;durP1;ratioP1;P2;durP2;ratioP2
57241;SDS011;43095;53.302;5.786;2023-05-07T00:02:47;35.88;;;26.92;;
57241;SDS011;43095;53.302;5.786;2023-05-07T00:05:18;42.65;;;29.70;;
57241;SDS011;43095;53.302;5.786;2023-05-07T00:07:55;42.15;;;28.42;;
57241;SDS011;43095;53.302;5.786;2023-05-07T00:10:40;38.25;;;28.58;;
57241;SDS011;43095;53.302;5.786;2023-05-07T00:13:20;38.83;;;29.38;;
57241;SDS011;43095;53.302;5.786;2023-05-07T00:16:02;40.33;;;30.00;;
57241;SDS011;43095;53.302;5.786;2023-05-07T00:18:35;41.63;;;29.48;;
57241;SDS011;43095;53.302;5.786;2023-05-07T00:21:05;40.40;;;29.73;;
57241;SDS011;43095;53.302;5.786;2023-05-07T00:23:36;42.92;;;29.73;;
57241;SDS011;43095;53.302;5.786;2023-05-07T00:26:12;40.25;;;29.83;;
57241;SDS011;43095;53.302;5.786;2023-05-07T00:28:42;42.53;;;31.63;;
57241;SDS011;43095;53.302;5.786;2023-05-07T00:31:10;37.97;;;28.33;;
57241;SDS011;43095;53.302;5.786;2023-05-07T00:33:42;39.30;;;30.67;;
57241;SDS011;43095;53.302;5.786;2023-05-07T00:36:17;44.42;;;31.42;;
57241;SDS011;43095;53.302;5.786;2023-05-07T00:38:47;49.35;;;32.22;;
57241;SDS011;43095;53.302;5.786;2023-05-07T00:41:15;40.28;;;30.38;;
57241;SDS011;43095;53.302;5.786;2023-05-07T00:43:47;44.90;;;30.77;;
57241;SDS011;43095;53.302;5.786;2023-05-07T00:46:20;39.03;;;30.48;;
57241;SDS011;43095;53.302;5.786;2023-05-07T00:48:49;46.75;;;31.90;;
57241;SDS011;43095;53.302;5.786;2023-05-07T00:51:26;41.83;;;30.95;;
57241;SDS011;43095;53.302;5.786;2023-05-07T00:53:55;44.85;;;33.35;;
57241;SDS011;43095;53.302;5.786;2023-05-07T00:56:33;45.13;;;30.70;;
57241;SDS011;43095;53.302;5.786;2023-05-07T00:59:02;41.95;;;31.98;;
57241;SDS011;43095;53.302;5.786;2023-05-07T01:01:45;41.55;;;30.80;;
57241;SDS011;43095;53.302;5.786;2023-05-07T01:04:14;41.45;;;30.75;;
57241;SDS011;43095;53.302;5.786;2023-05-07T01:06:54;44.72;;;33.08;;
57241;SDS011;43095;53.302;5.786;2023-05-07T01:09:24;50.25;;;33.55;;
57241;SDS011;43095;53.302;5.786;2023-05-07T01:11:55;44.97;;;31.63;;
57241;SDS011;43095;53.302;5.786;2023-05-07T01:14:24;50.55;;;33.97;;
57241;SDS011;43095;53.302;5.786;2023-05-07T01:17:03;43.67;;;33.45;;
57241;SDS011;43095;53.302;5.786;2023-05-07T01:19:31;43.05;;;31.85;;
57241;SDS011;43095;53.302;5.786;2023-05-07T01:22:07;42.38;;;31.58;;
57241;SDS011;43095;53.302;5.786;2023-05-07T01:24:59;40.95;;;31.30;;
57241;SDS011;43095;53.302;5.786;2023-05-07T01:27:30;47.33;;;31.95;;
57241;SDS011;43095;53.302;5.786;2023-05-07T01:30:00;44.10;;;32.53;;
57241;SDS011;43095;53.302;5.786;2023-05-07T01:32:38;46.42;;;33.20;;
57241;SDS011;43095;53.302;5.786;2023-05-07T01:35:09;43.88;;;32.20;;
57241;SDS011;43095;53.302;5.786;2023-05-07T01:37:39;46.10;;;32.03;;
57241;SDS011;43095;53.302;5.786;2023-05-07T01:40:08;47.05;;;34.30;;
57241;SDS011;43095;53.302;5.786;2023-05-07T01:42:40;44.17;;;33.17;;
57241;SDS011;43095;53.302;5.786;2023-05-07T01:45:08;52.70;;;35.90;;
57241;SDS011;43095;53.302;5.786;2023-05-07T01:47:37;45.90;;;33.65;;
57241;SDS011;43095;53.302;5.786;2023-05-07T01:50:15;50.58;;;34.47;;
57241;SDS011;43095;53.302;5.786;2023-05-07T01:52:49;47.65;;;34.13;;
57241;SDS011;43095;53.302;5.786;2023-05-07T01:55:17;43.38;;;34.90;;
57241;SDS011;43095;53.302;5.786;2023-05-07T01:57:45;48.28;;;37.10;;
57241;SDS011;43095;53.302;5.786;2023-05-07T02:00:15;49.50;;;35.63;;
57241;SDS011;43095;53.302;5.786;2023-05-07T02:02:46;49.20;;;35.45;;
57241;SDS011;43095;53.302;5.786;2023-05-07T02:05:31;52.20;;;36.03;;
57241;SDS011;43095;53.302;5.786;2023-05-07T02:08:21;52.20;;;37.08;;
57241;SDS011;43095;53.302;5.786;2023-05-07T02:10:57;50.90;;;36.28;;
57241;SDS011;43095;53.302;5.786;2023-05-07T02:13:26;53.97;;;38.88;;
57241;SDS011;43095;53.302;5.786;2023-05-07T02:16:03;57.95;;;40.28;;
57241;SDS011;43095;53.302;5.786;2023-05-07T02:18:31;51.47;;;38.95;;
57241;SDS011;43095;53.302;5.786;2023-05-07T02:20:59;53.47;;;39.20;;
57241;SDS011;43095;53.302;5.786;2023-05-07T02:23:26;54.40;;;38.08;;
57241;SDS011;43095;53.302;5.786;2023-05-07T02:25:54;57.72;;;40.28;;
57241;SDS011;43095;53.302;5.786;2023-05-07T02:28:22;53.92;;;38.53;;
57241;SDS011;43095;53.302;5.786;2023-05-07T02:31:10;53.13;;;39.03;;
57241;SDS011;43095;53.302;5.786;2023-05-07T02:33:38;55.42;;;40.67;;
57241;SDS011;43095;53.302;5.786;2023-05-07T02:36:12;50.15;;;38.40;;
57241;SDS011;43095;53.302;5.786;2023-05-07T02:39:03;55.50;;;39.28;;
57241;SDS011;43095;53.302;5.786;2023-05-07T02:41:32;52.65;;;39.13;;
57241;SDS011;43095;53.302;5.786;2023-05-07T02:44:09;60.70;;;41.15;;
57241;SDS011;43095;53.302;5.786;2023-05-07T02:46:38;58.78;;;38.13;;
57241;SDS011;43095;53.302;5.786;2023-05-07T02:49:15;53.83;;;38.80;;
57241;SDS011;43095;53.302;5.786;2023-05-07T02:51:43;53.22;;;39.22;;
57241;SDS011;43095;53.302;5.786;2023-05-07T02:54:22;55.78;;;37.00;;
57241;SDS011;43095;53.302;5.786;2023-05-07T02:56:54;51.97;;;37.27;;
57241;SDS011;43095;53.302;5.786;2023-05-07T02:59:23;51.17;;;38.03;;
57241;SDS011;43095;53.302;5.786;2023-05-07T03:01:52;51.75;;;37.80;;
57241;SDS011;43095;53.302;5.786;2023-05-07T03:04:22;51.40;;;37.08;;
57241;SDS011;43095;53.302;5.786;2023-05-07T03:06:55;51.83;;;35.95;;
57241;SDS011;43095;53.302;5.786;2023-05-07T03:09:23;51.53;;;36.30;;
57241;SDS011;43095;53.302;5.786;2023-05-07T03:11:51;48.67;;;35.40;;
57241;SDS011;43095;53.302;5.786;2023-05-07T03:14:30;49.38;;;37.20;;
57241;SDS011;43095;53.302;5.786;2023-05-07T03:17:00;50.45;;;35.15;;
57241;SDS011;43095;53.302;5.786;2023-05-07T03:19:38;50.08;;;35.05;;
57241;SDS011;43095;53.302;5.786;2023-05-07T03:22:07;48.58;;;34.75;;
57241;SDS011;43095;53.302;5.786;2023-05-07T03:24:35;52.22;;;35.90;;
57241;SDS011;43095;53.302;5.786;2023-05-07T03:27:09;48.85;;;36.22;;
57241;SDS011;43095;53.302;5.786;2023-05-07T03:29:37;53.00;;;35.42;;
57241;SDS011;43095;53.302;5.786;2023-05-07T03:32:06;46.42;;;34.80;;
57241;SDS011;43095;53.302;5.786;2023-05-07T03:34:40;46.50;;;33.30;;
57241;SDS011;43095;53.302;5.786;2023-05-07T03:37:22;56.17;;;37.17;;
57241;SDS011;43095;53.302;5.786;2023-05-07T03:39:49;55.78;;;37.85;;
57241;SDS011;43095;53.302;5.786;2023-05-07T03:42:32;52.85;;;36.22;;
57241;SDS011;43095;53.302;5.786;2023-05-07T03:45:08;53.42;;;37.15;;
57241;SDS011;43095;53.302;5.786;2023-05-07T03:47:39;52.95;;;37.35;;
57241;SDS011;43095;53.302;5.786;2023-05-07T03:50:14;56.90;;;38.53;;
57241;SDS011;43095;53.302;5.786;2023-05-07T03:52:42;52.95;;;36.35;;
57241;SDS011;43095;53.302;5.786;2023-05-07T03:55:12;52.58;;;36.10;;
57241;SDS011;43095;53.302;5.786;2023-05-07T03:57:55;52.05;;;37.45;;
57241;SDS011;43095;53.302;5.786;2023-05-07T04:00:25;50.55;;;35.88;;
57241;SDS011;43095;53.302;5.786;2023-05-07T04:03:00;58.58;;;39.55;;
57241;SDS011;43095;53.302;5.786;2023-05-07T04:05:30;50.80;;;37.13;;
57241;SDS011;43095;53.302;5.786;2023-05-07T04:08:04;58.70;;;39.83;;
57241;SDS011;43095;53.302;5.786;2023-05-07T04:10:41;58.05;;;38.80;;
57241;SDS011;43095;53.302;5.786;2023-05-07T04:13:10;52.17;;;37.85;;
57241;SDS011;43095;53.302;5.786;2023-05-07T04:15:38;58.63;;;39.78;;
57241;SDS011;43095;53.302;5.786;2023-05-07T04:18:11;58.38;;;40.17;;
57241;SDS011;43095;53.302;5.786;2023-05-07T04:20:44;55.88;;;38.53;;
57241;SDS011;43095;53.302;5.786;2023-05-07T04:23:13;60.17;;;38.97;;
57241;SDS011;43095;53.302;5.786;2023-05-07T04:25:42;60.72;;;40.20;;
57241;SDS011;43095;53.302;5.786;2023-05-07T04:28:31;55.33;;;39.15;;
57241;SDS011;43095;53.302;5.786;2023-05-07T04:30:58;62.38;;;41.38;;
57241;SDS011;43095;53.302;5.786;2023-05-07T04:33:26;58.42;;;38.92;;
57241;SDS011;43095;53.302;5.786;2023-05-07T04:36:03;59.50;;;40.05;;
57241;SDS011;43095;53.302;5.786;2023-05-07T04:38:39;59.80;;;40.25;;
57241;SDS011;43095;53.302;5.786;2023-05-07T04:41:12;64.65;;;41.92;;
57241;SDS011;43095;53.302;5.786;2023-05-07T04:43:40;66.93;;;41.95;;
57241;SDS011;43095;53.302;5.786;2023-05-07T04:46:10;63.13;;;41.30;;
57241;SDS011;43095;53.302;5.786;2023-05-07T04:48:41;73.25;;;44.10;;
57241;SDS011;43095;53.302;5.786;2023-05-07T04:51:08;58.75;;;39.75;;
57241;SDS011;43095;53.302;5.786;2023-05-07T04:53:39;67.05;;;42.95;;
57241;SDS011;43095;53.302;5.786;2023-05-07T04:56:15;64.63;;;42.53;;
57241;SDS011;43095;53.302;5.786;2023-05-07T04:58:48;71.35;;;42.50;;
57241;SDS011;43095;53.302;5.786;2023-05-07T05:01:20;67.82;;;45.88;;
57241;SDS011;43095;53.302;5.786;2023-05-07T05:03:47;65.13;;;42.00;;
57241;SDS011;43095;53.302;5.786;2023-05-07T05:06:26;68.05;;;43.78;;
57241;SDS011;43095;53.302;5.786;2023-05-07T05:08:54;65.55;;;43.72;;
57241;SDS011;43095;53.302;5.786;2023-05-07T05:11:27;69.40;;;44.30;;
57241;SDS011;43095;53.302;5.786;2023-05-07T05:13:56;63.08;;;41.47;;
57241;SDS011;43095;53.302;5.786;2023-05-07T05:16:23;66.72;;;43.08;;
57241;SDS011;43095;53.302;5.786;2023-05-07T05:18:52;66.93;;;43.10;;
57241;SDS011;43095;53.302;5.786;2023-05-07T05:21:21;68.10;;;43.15;;
57241;SDS011;43095;53.302;5.786;2023-05-07T05:23:52;67.10;;;43.35;;
57241;SDS011;43095;53.302;5.786;2023-05-07T05:26:32;65.07;;;42.33;;
57241;SDS011;43095;53.302;5.786;2023-05-07T05:29:00;67.22;;;42.42;;
57241;SDS011;43095;53.302;5.786;2023-05-07T05:31:38;67.57;;;43.55;;
57241;SDS011;43095;53.302;5.786;2023-05-07T05:34:09;71.00;;;43.83;;
57241;SDS011;43095;53.302;5.786;2023-05-07T05:36:39;70.88;;;44.00;;
57241;SDS011;43095;53.302;5.786;2023-05-07T05:39:07;69.00;;;43.55;;
57241;SDS011;43095;53.302;5.786;2023-05-07T05:41:36;79.18;;;47.22;;
57241;SDS011;43095;53.302;5.786;2023-05-07T05:44:04;71.03;;;44.95;;
57241;SDS011;43095;53.302;5.786;2023-05-07T05:46:33;65.70;;;42.47;;
57241;SDS011;43095;53.302;5.786;2023-05-07T05:49:08;63.67;;;41.50;;
57241;SDS011;43095;53.302;5.786;2023-05-07T05:51:44;69.85;;;42.75;;
57241;SDS011;43095;53.302;5.786;2023-05-07T05:54:14;67.32;;;43.47;;
57241;SDS011;43095;53.302;5.786;2023-05-07T05:56:44;64.70;;;43.05;;
57241;SDS011;43095;53.302;5.786;2023-05-07T05:59:14;64.38;;;42.33;;
57241;SDS011;43095;53.302;5.786;2023-05-07T06:01:42;60.78;;;42.45;;
57241;SDS011;43095;53.302;5.786;2023-05-07T06:04:10;60.92;;;40.72;;
57241;SDS011;43095;53.302;5.786;2023-05-07T06:06:42;65.57;;;42.28;;
57241;SDS011;43095;53.302;5.786;2023-05-07T06:09:13;62.20;;;41.00;;
57241;SDS011;43095;53.302;5.786;2023-05-07T06:11:43;64.25;;;40.78;;
57241;SDS011;43095;53.302;5.786;2023-05-07T06:14:26;64.45;;;41.13;;
57241;SDS011;43095;53.302;5.786;2023-05-07T06:17:02;59.88;;;42.80;;
57241;SDS011;43095;53.302;5.786;2023-05-07T06:19:30;59.67;;;39.85;;
57241;SDS011;43095;53.302;5.786;2023-05-07T06:21:59;58.38;;;40.50;;
57241;SDS011;43095;53.302;5.786;2023-05-07T06:26:59;62.28;;;39.97;;
57241;SDS011;43095;53.302;5.786;2023-05-07T06:29:30;51.90;;;38.10;;
57241;SDS011;43095;53.302;5.786;2023-05-07T06:32:19;55.13;;;38.10;;
57241;SDS011;43095;53.302;5.786;2023-05-07T06:34:54;57.85;;;40.03;;
57241;SDS011;43095;53.302;5.786;2023-05-07T06:37:32;51.53;;;36.63;;
57241;SDS011;43095;53.302;5.786;2023-05-07T06:40:03;58.70;;;40.17;;
57241;SDS011;43095;53.302;5.786;2023-05-07T06:42:42;53.42;;;38.63;;
57241;SDS011;43095;53.302;5.786;2023-05-07T06:45:44;56.25;;;38.78;;
57241;SDS011;43095;53.302;5.786;2023-05-07T06:48:13;54.75;;;37.75;;
57241;SDS011;43095;53.302;5.786;2023-05-07T06:50:59;56.85;;;38.65;;
57241;SDS011;43095;53.302;5.786;2023-05-07T06:53:39;56.97;;;39.73;;
57241;SDS011;43095;53.302;5.786;2023-05-07T06:59:03;52.65;;;36.55;;
57241;SDS011;43095;53.302;5.786;2023-05-07T07:01:39;50.42;;;35.75;;
57241;SDS011;43095;53.302;5.786;2023-05-07T07:04:21;54.92;;;38.03;;
57241;SDS011;43095;53.302;5.786;2023-05-07T07:07:01;50.55;;;35.97;;
57241;SDS011;43095;53.302;5.786;2023-05-07T07:09:44;47.75;;;34.25;;
57241;SDS011;43095;53.302;5.786;2023-05-07T07:12:19;47.20;;;33.05;;
57241;SDS011;43095;53.302;5.786;2023-05-07T07:17:21;48.78;;;34.15;;
57241;SDS011;43095;53.302;5.786;2023-05-07T07:19:53;47.38;;;34.45;;
57241;SDS011;43095;53.302;5.786;2023-05-07T07:22:21;44.08;;;32.00;;
57241;SDS011;43095;53.302;5.786;2023-05-07T07:24:57;43.75;;;32.92;;
57241;SDS011;43095;53.302;5.786;2023-05-07T07:27:28;47.28;;;33.58;;
57241;SDS011;43095;53.302;5.786;2023-05-07T07:29:57;44.92;;;32.53;;
57241;SDS011;43095;53.302;5.786;2023-05-07T07:32:26;45.10;;;33.67;;
57241;SDS011;43095;53.302;5.786;2023-05-07T07:34:54;45.10;;;33.08;;
57241;SDS011;43095;53.302;5.786;2023-05-07T07:37:21;47.00;;;32.42;;
57241;SDS011;43095;53.302;5.786;2023-05-07T07:39:51;41.83;;;31.67;;
57241;SDS011;43095;53.302;5.786;2023-05-07T07:42:25;46.38;;;33.42;;
57241;SDS011;43095;53.302;5.786;2023-05-07T07:44:53;41.83;;;32.17;;
57241;SDS011;43095;53.302;5.786;2023-05-07T07:47:49;43.15;;;32.28;;
57241;SDS011;43095;53.302;5.786;2023-05-07T07:50:17;41.33;;;31.13;;
57241;SDS011;43095;53.302;5.786;2023-05-07T07:53:05;40.95;;;31.60;;
57241;SDS011;43095;53.302;5.786;2023-05-07T07:55:38;41.55;;;30.63;;
57241;SDS011;43095;53.302;5.786;2023-05-07T07:58:08;40.72;;;30.17;;
57241;SDS011;43095;53.302;5.786;2023-05-07T08:00:36;43.13;;;32.78;;
57241;SDS011;43095;53.302;5.786;2023-05-07T08:03:04;44.67;;;31.77;;
57241;SDS011;43095;53.302;5.786;2023-05-07T08:05:38;39.03;;;29.77;;
57241;SDS011;43095;53.302;5.786;2023-05-07T08:08:10;40.00;;;32.13;;
57241;SDS011;43095;53.302;5.786;2023-05-07T08:10:40;40.22;;;31.88;;
57241;SDS011;43095;53.302;5.786;2023-05-07T08:13:15;37.35;;;28.90;;
57241;SDS011;43095;53.302;5.786;2023-05-07T08:15:43;40.05;;;31.10;;
57241;SDS011;43095;53.302;5.786;2023-05-07T08:18:12;41.42;;;30.33;;
57241;SDS011;43095;53.302;5.786;2023-05-07T08:20:44;45.53;;;32.58;;
57241;SDS011;43095;53.302;5.786;2023-05-07T08:23:16;45.58;;;32.83;;
57241;SDS011;43095;53.302;5.786;2023-05-07T08:25:45;41.38;;;31.13;;
57241;SDS011;43095;53.302;5.786;2023-05-07T08:28:14;40.35;;;28.95;;
57241;SDS011;43095;53.302;5.786;2023-05-07T08:30:41;41.05;;;32.85;;
57241;SDS011;43095;53.302;5.786;2023-05-07T08:33:09;40.65;;;30.85;;
57241;SDS011;43095;53.302;5.786;2023-05-07T08:35:37;40.33;;;30.75;;
57241;SDS011;43095;53.302;5.786;2023-05-07T08:38:07;39.85;;;29.55;;
57241;SDS011;43095;53.302;5.786;2023-05-07T08:40:36;40.13;;;29.88;;
57241;SDS011;43095;53.302;5.786;2023-05-07T08:43:10;38.28;;;29.52;;
57241;SDS011;43095;53.302;5.786;2023-05-07T08:45:40;39.65;;;29.15;;
57241;SDS011;43095;53.302;5.786;2023-05-07T08:48:15;38.75;;;30.80;;
57241;SDS011;43095;53.302;5.786;2023-05-07T08:50:50;39.80;;;30.75;;
57241;SDS011;43095;53.302;5.786;2023-05-07T08:53:18;36.00;;;29.58;;
57241;SDS011;43095;53.302;5.786;2023-05-07T08:55:57;37.17;;;30.65;;
57241;SDS011;43095;53.302;5.786;2023-05-07T08:58:27;35.72;;;29.10;;
57241;SDS011;43095;53.302;5.786;2023-05-07T09:00:56;38.13;;;30.10;;
57241;SDS011;43095;53.302;5.786;2023-05-07T09:03:23;36.58;;;29.42;;
57241;SDS011;43095;53.302;5.786;2023-05-07T09:05:57;33.67;;;27.60;;
57241;SDS011;43095;53.302;5.786;2023-05-07T09:08:26;35.95;;;28.98;;
57241;SDS011;43095;53.302;5.786;2023-05-07T09:10:57;34.25;;;28.85;;
57241;SDS011;43095;53.302;5.786;2023-05-07T09:13:26;37.65;;;29.55;;
57241;SDS011;43095;53.302;5.786;2023-05-07T09:15:55;36.45;;;27.83;;
57241;SDS011;43095;53.302;5.786;2023-05-07T09:18:24;30.63;;;26.48;;
57241;SDS011;43095;53.302;5.786;2023-05-07T09:20:52;34.47;;;27.63;;
57241;SDS011;43095;53.302;5.786;2023-05-07T09:23:21;35.33;;;27.73;;
57241;SDS011;43095;53.302;5.786;2023-05-07T09:25:48;35.35;;;29.00;;
57241;SDS011;43095;53.302;5.786;2023-05-07T09:28:23;34.67;;;26.70;;
57241;SDS011;43095;53.302;5.786;2023-05-07T09:30:51;33.58;;;28.63;;
57241;SDS011;43095;53.302;5.786;2023-05-07T09:33:19;31.38;;;26.75;;
57241;SDS011;43095;53.302;5.786;2023-05-07T09:35:51;31.95;;;26.40;;
57241;SDS011;43095;53.302;5.786;2023-05-07T09:38:19;32.38;;;27.38;;
57241;SDS011;43095;53.302;5.786;2023-05-07T09:41:01;31.30;;;26.63;;
57241;SDS011;43095;53.302;5.786;2023-05-07T09:43:36;31.58;;;26.48;;
57241;SDS011;43095;53.302;5.786;2023-05-07T09:46:07;34.03;;;27.23;;
57241;SDS011;43095;53.302;5.786;2023-05-07T09:48:36;38.35;;;29.15;;
57241;SDS011;43095;53.302;5.786;2023-05-07T09:51:17;33.45;;;26.30;;
57241;SDS011;43095;53.302;5.786;2023-05-07T09:56:16;34.65;;;27.33;;
57241;SDS011;43095;53.302;5.786;2023-05-07T09:58:45;36.08;;;27.80;;
57241;SDS011;43095;53.302;5.786;2023-05-07T10:01:15;33.53;;;26.42;;
57241;SDS011;43095;53.302;5.786;2023-05-07T10:03:45;32.03;;;26.85;;
57241;SDS011;43095;53.302;5.786;2023-05-07T10:06:17;33.47;;;26.30;;
57241;SDS011;43095;53.302;5.786;2023-05-07T10:08:47;29.85;;;25.85;;
57241;SDS011;43095;53.302;5.786;2023-05-07T10:11:15;33.70;;;26.98;;
57241;SDS011;43095;53.302;5.786;2023-05-07T10:13:44;32.00;;;27.25;;
57241;SDS011;43095;53.302;5.786;2023-05-07T10:16:13;30.48;;;26.10;;
57241;SDS011;43095;53.302;5.786;2023-05-07T10:18:45;31.20;;;26.70;;
57241;SDS011;43095;53.302;5.786;2023-05-07T10:21:18;31.50;;;25.98;;
57241;SDS011;43095;53.302;5.786;2023-05-07T10:23:49;31.65;;;25.73;;
57241;SDS011;43095;53.302;5.786;2023-05-07T10:26:18;30.48;;;24.55;;
57241;SDS011;43095;53.302;5.786;2023-05-07T10:28:49;33.60;;;26.50;;
57241;SDS011;43095;53.302;5.786;2023-05-07T10:34:09;33.78;;;27.02;;
57241;SDS011;43095;53.302;5.786;2023-05-07T10:36:38;29.20;;;25.75;;
57241;SDS011;43095;53.302;5.786;2023-05-07T10:39:09;33.10;;;26.45;;
57241;SDS011;43095;53.302;5.786;2023-05-07T10:41:38;31.88;;;26.02;;
57241;SDS011;43095;53.302;5.786;2023-05-07T10:44:07;30.00;;;25.65;;
57241;SDS011;43095;53.302;5.786;2023-05-07T10:46:36;31.88;;;26.23;;
57241;SDS011;43095;53.302;5.786;2023-05-07T10:49:12;31.13;;;25.95;;
57241;SDS011;43095;53.302;5.786;2023-05-07T10:51:46;31.10;;;25.00;;
57241;SDS011;43095;53.302;5.786;2023-05-07T10:54:37;29.05;;;25.48;;
57241;SDS011;43095;53.302;5.786;2023-05-07T10:59:39;31.25;;;25.33;;
57241;SDS011;43095;53.302;5.786;2023-05-07T11:02:19;32.78;;;26.63;;
57241;SDS011;43095;53.302;5.786;2023-05-07T11:07:40;30.80;;;25.38;;
57241;SDS011;43095;53.302;5.786;2023-05-07T11:10:21;28.55;;;25.52;;
57241;SDS011;43095;53.302;5.786;2023-05-07T11:12:56;29.77;;;25.45;;
57241;SDS011;43095;53.302;5.786;2023-05-07T11:15:37;30.30;;;27.08;;
57241;SDS011;43095;53.302;5.786;2023-05-07T11:18:21;30.67;;;25.65;;
57241;SDS011;43095;53.302;5.786;2023-05-07T11:26:24;30.23;;;24.90;;
57241;SDS011;43095;53.302;5.786;2023-05-07T11:28:54;29.30;;;25.02;;
57241;SDS011;43095;53.302;5.786;2023-05-07T11:31:25;29.67;;;25.58;;
57241;SDS011;43095;53.302;5.786;2023-05-07T11:33:55;28.08;;;23.65;;
57241;SDS011;43095;53.302;5.786;2023-05-07T11:36:31;28.88;;;24.80;;
57241;SDS011;43095;53.302;5.786;2023-05-07T11:39:29;29.40;;;23.60;;
57241;SDS011;43095;53.302;5.786;2023-05-07T11:41:59;27.98;;;24.58;;
57241;SDS011;43095;53.302;5.786;2023-05-07T11:44:45;27.67;;;24.67;;
57241;SDS011;43095;53.302;5.786;2023-05-07T11:47:18;28.70;;;24.30;;
57241;SDS011;43095;53.302;5.786;2023-05-07T11:49:48;29.13;;;23.65;;
57241;SDS011;43095;53.302;5.786;2023-05-07T11:52:19;26.50;;;23.63;;
57241;SDS011;43095;53.302;5.786;2023-05-07T11:55:03;28.33;;;22.77;;
57241;SDS011;43095;53.302;5.786;2023-05-07T11:57:32;25.23;;;22.50;;
57241;SDS011;43095;53.302;5.786;2023-05-07T12:00:10;25.50;;;22.27;;
57241;SDS011;43095;53.302;5.786;2023-05-07T12:02:44;26.23;;;20.60;;
57241;SDS011;43095;53.302;5.786;2023-05-07T12:07:40;27.20;;;23.10;;
57241;SDS011;43095;53.302;5.786;2023-05-07T12:10:13;27.13;;;21.85;;
57241;SDS011;43095;53.302;5.786;2023-05-07T12:13:06;24.05;;;20.90;;
57241;SDS011;43095;53.302;5.786;2023-05-07T12:18:45;24.60;;;22.00;;
57241;SDS011;43095;53.302;5.786;2023-05-07T12:21:13;23.50;;;20.98;;
57241;SDS011;43095;53.302;5.786;2023-05-07T12:26:15;23.23;;;20.17;;
57241;SDS011;43095;53.302;5.786;2023-05-07T12:28:49;24.73;;;21.75;;
57241;SDS011;43095;53.302;5.786;2023-05-07T12:31:19;24.23;;;21.25;;
57241;SDS011;43095;53.302;5.786;2023-05-07T12:33:56;24.05;;;21.30;;
57241;SDS011;43095;53.302;5.786;2023-05-07T12:36:41;23.92;;;20.83;;
57241;SDS011;43095;53.302;5.786;2023-05-07T12:39:22;21.73;;;19.40;;
57241;SDS011;43095;53.302;5.786;2023-05-07T12:44:53;21.90;;;19.63;;
57241;SDS011;43095;53.302;5.786;2023-05-07T12:47:55;23.70;;;21.17;;
57241;SDS011;43095;53.302;5.786;2023-05-07T12:50:26;22.55;;;20.25;;
57241;SDS011;43095;53.302;5.786;2023-05-07T12:53:00;20.92;;;18.70;;
57241;SDS011;43095;53.302;5.786;2023-05-07T12:55:52;22.27;;;19.83;;
57241;SDS011;43095;53.302;5.786;2023-05-07T13:01:43;20.30;;;18.10;;
57241;SDS011;43095;53.302;5.786;2023-05-07T13:04:24;22.58;;;20.25;;
57241;SDS011;43095;53.302;5.786;2023-05-07T13:07:12;21.17;;;18.27;;
57241;SDS011;43095;53.302;5.786;2023-05-07T13:10:18;21.35;;;19.05;;
57241;SDS011;43095;53.302;5.786;2023-05-07T13:13:16;24.50;;;20.50;;
57241;SDS011;43095;53.302;5.786;2023-05-07T13:15:44;21.27;;;19.08;;
57241;SDS011;43095;53.302;5.786;2023-05-07T13:22:25;23.13;;;18.17;;
57241;SDS011;43095;53.302;5.786;2023-05-07T13:24:55;22.63;;;18.63;;
57241;SDS011;43095;53.302;5.786;2023-05-07T13:27:29;20.55;;;18.45;;
57241;SDS011;43095;53.302;5.786;2023-05-07T13:33:28;21.05;;;18.58;;
57241;SDS011;43095;53.302;5.786;2023-05-07T13:36:11;18.88;;;16.35;;
57241;SDS011;43095;53.302;5.786;2023-05-07T13:39:35;21.75;;;18.10;;
57241;SDS011;43095;53.302;5.786;2023-05-07T13:43:15;19.30;;;15.75;;
57241;SDS011;43095;53.302;5.786;2023-05-07T13:46:20;20.80;;;16.10;;
57241;SDS011;43095;53.302;5.786;2023-05-07T13:49:07;20.10;;;16.85;;
57241;SDS011;43095;53.302;5.786;2023-05-07T13:52:15;19.85;;;17.63;;
57241;SDS011;43095;53.302;5.786;2023-05-07T13:55:02;19.33;;;17.23;;
57241;SDS011;43095;53.302;5.786;2023-05-07T13:57:57;19.30;;;17.02;;
57241;SDS011;43095;53.302;5.786;2023-05-07T14:00:40;17.70;;;15.75;;
57241;SDS011;43095;53.302;5.786;2023-05-07T14:03:10;18.98;;;16.98;;
57241;SDS011;43095;53.302;5.786;2023-05-07T14:05:45;19.83;;;17.63;;
57241;SDS011;43095;53.302;5.786;2023-05-07T14:08:24;19.13;;;17.13;;
57241;SDS011;43095;53.302;5.786;2023-05-07T14:10:57;19.67;;;16.17;;
57241;SDS011;43095;53.302;5.786;2023-05-07T14:13:24;18.23;;;16.33;;
57241;SDS011;43095;53.302;5.786;2023-05-07T14:15:53;20.33;;;18.05;;
57241;SDS011;43095;53.302;5.786;2023-05-07T14:18:22;18.08;;;16.27;;
57241;SDS011;43095;53.302;5.786;2023-05-07T14:20:54;19.38;;;16.70;;
57241;SDS011;43095;53.302;5.786;2023-05-07T14:23:30;18.02;;;16.23;;
57241;SDS011;43095;53.302;5.786;2023-05-07T14:25:58;18.63;;;16.73;;
57241;SDS011;43095;53.302;5.786;2023-05-07T14:28:32;18.55;;;16.55;;
57241;SDS011;43095;53.302;5.786;2023-05-07T14:31:01;17.90;;;16.00;;
57241;SDS011;43095;53.302;5.786;2023-05-07T14:33:29;17.80;;;15.90;;
57241;SDS011;43095;53.302;5.786;2023-05-07T14:36:07;19.90;;;16.58;;
57241;SDS011;43095;53.302;5.786;2023-05-07T14:38:35;19.63;;;17.63;;
57241;SDS011;43095;53.302;5.786;2023-05-07T14:41:03;17.45;;;15.65;;
57241;SDS011;43095;53.302;5.786;2023-05-07T14:43:42;19.95;;;17.85;;
57241;SDS011;43095;53.302;5.786;2023-05-07T14:46:25;19.30;;;17.40;;
57241;SDS011;43095;53.302;5.786;2023-05-07T14:49:01;19.40;;;17.58;;
57241;SDS011;43095;53.302;5.786;2023-05-07T14:51:29;20.10;;;18.05;;
57241;SDS011;43095;53.302;5.786;2023-05-07T14:53:57;22.50;;;18.05;;
57241;SDS011;43095;53.302;5.786;2023-05-07T14:56:24;20.95;;;18.85;;
57241;SDS011;43095;53.302;5.786;2023-05-07T14:58:52;21.58;;;19.48;;
57241;SDS011;43095;53.302;5.786;2023-05-07T15:01:21;21.05;;;18.85;;
57241;SDS011;43095;53.302;5.786;2023-05-07T15:03:49;22.45;;;18.58;;
57241;SDS011;43095;53.302;5.786;2023-05-07T15:06:23;21.77;;;19.48;;
57241;SDS011;43095;53.302;5.786;2023-05-07T15:08:56;22.35;;;19.42;;
57241;SDS011;43095;53.302;5.786;2023-05-07T15:11:31;20.27;;;18.05;;
57241;SDS011;43095;53.302;5.786;2023-05-07T15:13:59;20.45;;;18.10;;
57241;SDS011;43095;53.302;5.786;2023-05-07T15:16:35;20.98;;;18.88;;
57241;SDS011;43095;53.302;5.786;2023-05-07T15:19:41;20.23;;;18.23;;
57241;SDS011;43095;53.302;5.786;2023-05-07T15:22:11;21.77;;;19.55;;
57241;SDS011;43095;53.302;5.786;2023-05-07T15:24:39;22.15;;;19.83;;
57241;SDS011;43095;53.302;5.786;2023-05-07T15:27:10;21.33;;;19.10;;
57241;SDS011;43095;53.302;5.786;2023-05-07T15:29:45;20.77;;;18.73;;
57241;SDS011;43095;53.302;5.786;2023-05-07T15:32:15;21.88;;;19.15;;
57241;SDS011;43095;53.302;5.786;2023-05-07T15:35:03;19.65;;;17.63;;
57241;SDS011;43095;53.302;5.786;2023-05-07T15:37:34;21.08;;;18.77;;
57241;SDS011;43095;53.302;5.786;2023-05-07T15:40:04;20.05;;;18.05;;
57241;SDS011;43095;53.302;5.786;2023-05-07T15:42:39;19.85;;;17.83;;
57241;SDS011;43095;53.302;5.786;2023-05-07T15:45:06;20.98;;;18.88;;
57241;SDS011;43095;53.302;5.786;2023-05-07T15:47:34;20.10;;;18.00;;